Time;durP1;ratioP1;P1;durP2;ratioP2;P2;SDS_P1;SDS_P2;PMS_P1;PMS_P2;Temp;Humidity;BMP_temperature;BMP_pressure;BME280_temperature;BME280_humidity;BME280_pressure;Samples;Min_cycle;Max_cycle;Signal;HPM_P1;HPM_P2
2022/03/09 00:01:49;;;;;;;13.40;8.18;;;18.20;57.70;;;;;;5014138;28;25858;-58
2022/03/09 00:04:14;;;;;;;12.27;8.60;;;18.10;57.70;;;;;;5017388;28;20036;-58
2022/03/09 00:06:40;;;;;;;13.63;8.40;;;18.10;57.70;;;;;;5018609;28;20750;-58
2022/03/09 00:09:06;;;;;;;11.68;8.07;;;18.10;57.70;;;;;;5018833;28;20034;-58
2022/03/09 00:11:31;;;;;;;12.55;7.80;;;18.10;57.70;;;;;;5018328;28;20037;-58
2022/03/09 00:13:58;;;;;;;12.00;7.90;;;18.10;57.70;;;;;;5013284;28;20044;-58
2022/03/09 00:16:24;;;;;;;12.63;7.65;;;18.10;57.70;;;;;;5031266;28;20087;-58
2022/03/09 00:18:49;;;;;;;12.52;7.53;;;18.10;57.60;;;;;;5019434;28;20483;-58
2022/03/09 00:21:15;;;;;;;12.65;7.70;;;18.00;57.70;;;;;;5018290;28;20471;-58
2022/03/09 00:23:41;;;;;;;11.07;6.88;;;18.00;57.50;;;;;;5017373;28;20033;-58
2022/03/09 00:26:06;;;;;;;12.25;7.43;;;18.00;57.60;;;;;;5015104;28;20029;-59
2022/03/09 00:28:32;;;;;;;11.77;7.53;;;18.00;57.60;;;;;;5028657;28;20478;-58
2022/03/09 00:30:58;;;;;;;11.15;7.30;;;18.00;57.60;;;;;;5024620;28;20025;-58
2022/03/09 00:33:23;;;;;;;10.80;7.18;;;18.00;57.60;;;;;;5022664;28;20030;-58
2022/03/09 00:35:49;;;;;;;11.90;7.60;;;18.00;57.70;;;;;;5018149;28;20426;-58
2022/03/09 00:38:14;;;;;;;11.05;6.90;;;17.90;57.50;;;;;;5016200;28;20044;-58
2022/03/09 00:40:40;;;;;;;11.73;7.25;;;17.90;57.60;;;;;;5013995;28;20045;-58
2022/03/09 00:43:06;;;;;;;10.75;6.65;;;17.90;57.60;;;;;;5020683;28;20045;-58
2022/03/09 00:45:31;;;;;;;10.00;6.63;;;17.90;57.60;;;;;;5021293;28;20036;-58
2022/03/09 00:47:57;;;;;;;11.07;6.70;;;17.90;57.60;;;;;;5020367;28;20033;-58
2022/03/09 00:50:23;;;;;;;10.35;6.72;;;17.90;57.60;;;;;;5029226;28;20022;-59
2022/03/09 00:52:48;;;;;;;10.90;6.65;;;17.80;57.60;;;;;;5013385;28;20060;-58
2022/03/09 00:55:14;;;;;;;10.27;6.50;;;17.80;57.60;;;;;;5026442;28;20026;-58
2022/03/09 00:57:40;;;;;;;12.35;7.10;;;17.80;57.80;;;;;;5019907;28;20113;-58
2022/03/09 01:00:06;;;;;;;10.63;6.45;;;17.80;57.70;;;;;;5018112;28;20064;-58
2022/03/09 01:02:32;;;;;;;10.57;6.55;;;17.80;57.80;;;;;;5023982;28;20037;-58
2022/03/09 01:04:57;;;;;;;11.65;6.78;;;17.80;57.80;;;;;;5022174;28;20036;-58
2022/03/09 01:07:23;;;;;;;9.45;6.22;;;17.80;57.80;;;;;;5030443;28;20112;-58
2022/03/09 01:09:49;;;;;;;11.90;6.60;;;17.70;57.70;;;;;;5018466;28;20033;-58
2022/03/09 01:12:14;;;;;;;9.88;6.30;;;17.70;57.80;;;;;;5021398;28;20042;-58
2022/03/09 01:14:40;;;;;;;10.20;5.68;;;17.80;57.90;;;;;;5017786;28;20395;-58
2022/03/09 01:17:05;;;;;;;9.80;6.30;;;17.70;57.80;;;;;;5014151;28;20029;-58
2022/03/09 01:19:31;;;;;;;9.60;5.90;;;17.70;57.90;;;;;;5028386;28;20032;-58
2022/03/09 01:21:57;;;;;;;10.02;5.90;;;17.70;58.00;;;;;;5023435;28;20453;-58
2022/03/09 01:24:22;;;;;;;10.48;5.95;;;17.70;58.00;;;;;;5021917;28;20034;-58
2022/03/09 01:26:48;;;;;;;9.43;5.60;;;17.60;58.00;;;;;;5017396;28;20025;-58
2022/03/09 01:29:14;;;;;;;9.23;5.35;;;17.60;58.00;;;;;;5015254;28;20100;-58
2022/03/09 01:31:39;;;;;;;11.05;6.10;;;17.60;58.00;;;;;;5013327;28;20084;-58
2022/03/09 01:34:05;;;;;;;9.73;5.72;;;17.60;58.00;;;;;;5016819;28;20097;-58
2022/03/09 01:36:30;;;;;;;10.57;5.85;;;17.60;58.10;;;;;;5024535;28;20021;-58
2022/03/09 01:38:56;;;;;;;10.90;6.03;;;17.60;58.10;;;;;;5024051;28;20032;-58
2022/03/09 01:41:22;;;;;;;9.07;5.43;;;17.60;58.20;;;;;;5015913;28;20124;-58
2022/03/09 01:44:14;;;;;;;10.48;5.55;;;17.60;58.20;;;;;;5012572;28;20117;-58
2022/03/09 01:46:40;;;;;;;9.32;5.18;;;17.60;58.30;;;;;;5026474;28;20442;-58
2022/03/09 01:49:07;;;;;;;9.75;5.55;;;17.50;58.20;;;;;;5016363;28;20072;-58
2022/03/09 01:51:34;;;;;;;9.07;5.10;;;17.50;58.30;;;;;;5017153;28;20406;-58
2022/03/09 01:54:00;;;;;;;9.65;5.40;;;17.50;58.30;;;;;;5019306;28;23564;-58
2022/03/09 01:56:26;;;;;;;10.23;5.43;;;17.50;58.40;;;;;;5016573;28;20056;-58
2022/03/09 01:58:52;;;;;;;9.57;5.10;;;17.50;58.40;;;;;;5011489;28;20030;-58
2022/03/09 02:01:17;;;;;;;10.35;5.28;;;17.50;58.40;;;;;;5015335;28;20414;-58
2022/03/09 02:03:43;;;;;;;8.85;4.82;;;17.50;58.50;;;;;;5016629;28;20470;-58
2022/03/09 02:06:09;;;;;;;9.73;5.25;;;17.50;58.50;;;;;;5016502;28;20030;-58
2022/03/09 02:11:19;;;;;;;8.85;4.80;;;17.50;58.50;;;;;;5027361;28;20037;-58
2022/03/09 02:13:45;;;;;;;8.18;4.80;;;17.40;58.50;;;;;;5060046;28;20045;-58
2022/03/09 02:16:13;;;;;;;9.27;4.80;;;17.40;58.60;;;;;;5016897;28;20099;-58
2022/03/09 02:18:39;;;;;;;9.52;4.88;;;17.40;58.60;;;;;;5018691;28;20037;-58
2022/03/09 02:21:05;;;;;;;7.78;4.70;;;17.40;58.60;;;;;;5016996;28;20018;-58
2022/03/09 02:23:30;;;;;;;8.60;4.75;;;17.40;58.70;;;;;;5016862;28;20445;-58
2022/03/09 02:25:56;;;;;;;8.63;4.50;;;17.40;58.80;;;;;;5023902;28;20522;-58
2022/03/09 02:28:21;;;;;;;8.38;4.28;;;17.40;58.80;;;;;;5019830;28;20548;-59
2022/03/09 02:30:47;;;;;;;8.07;4.70;;;17.40;58.70;;;;;;5017697;28;20033;-58
2022/03/09 02:33:13;;;;;;;8.77;4.72;;;17.40;58.80;;;;;;5016451;28;20026;-58
2022/03/09 02:35:39;;;;;;;8.13;4.32;;;17.30;59.80;;;;;;5016857;28;20037;-58
2022/03/09 02:38:05;;;;;;;8.32;4.55;;;17.30;58.80;;;;;;5013130;28;20510;-58
2022/03/09 02:40:30;;;;;;;9.55;4.63;;;17.30;58.80;;;;;;5012376;28;20085;-59
2022/03/09 02:42:56;;;;;;;9.38;4.25;;;17.30;58.80;;;;;;5026466;28;20068;-58
2022/03/09 02:45:21;;;;;;;8.82;4.53;;;17.30;58.80;;;;;;5021116;28;20034;-58
2022/03/09 02:47:47;;;;;;;7.68;4.15;;;17.30;58.90;;;;;;5016413;28;20034;-58
2022/03/09 02:50:13;;;;;;;7.72;4.18;;;17.30;58.90;;;;;;5014330;28;20029;-58
2022/03/09 02:52:39;;;;;;;9.77;4.40;;;17.30;59.00;;;;;;5012179;28;20025;-58
2022/03/09 02:55:06;;;;;;;7.88;4.18;;;17.30;59.00;;;;;;5016262;28;20101;-58
2022/03/09 02:57:32;;;;;;;8.52;4.40;;;17.30;59.00;;;;;;5015976;28;20038;-58
2022/03/09 02:59:57;;;;;;;7.95;4.32;;;17.30;59.00;;;;;;5016529;28;20030;-58
2022/03/09 03:02:23;;;;;;;9.10;4.05;;;17.30;59.10;;;;;;5027436;28;20125;-58
2022/03/09 03:04:49;;;;;;;8.85;4.00;;;17.20;59.10;;;;;;5011750;28;20112;-58
2022/03/09 03:07:14;;;;;;;7.28;3.72;;;17.20;59.20;;;;;;5015017;28;20061;-58
2022/03/09 03:09:40;;;;;;;9.30;4.32;;;17.20;59.20;;;;;;5016562;28;20072;-58
2022/03/09 03:12:06;;;;;;;8.45;3.95;;;17.20;59.20;;;;;;5016512;28;20034;-58
2022/03/09 03:14:31;;;;;;;8.30;3.90;;;17.20;59.20;;;;;;5022481;28;20029;-58
2022/03/09 03:16:57;;;;;;;7.60;4.05;;;17.20;59.30;;;;;;5011549;28;20474;-58
2022/03/09 03:19:23;;;;;;;7.97;3.83;;;17.20;59.30;;;;;;5029163;28;20474;-58
2022/03/09 03:21:48;;;;;;;7.05;3.90;;;17.20;59.30;;;;;;5020435;28;20138;-58
2022/03/09 03:24:14;;;;;;;7.18;3.60;;;17.20;59.30;;;;;;5019857;28;20108;-58
2022/03/09 03:26:39;;;;;;;6.72;3.80;;;17.10;59.30;;;;;;5019775;28;20458;-58
2022/03/09 03:29:05;;;;;;;7.55;3.60;;;17.10;59.30;;;;;;5018033;28;20056;-58
2022/03/09 03:31:31;;;;;;;8.25;3.97;;;17.20;59.40;;;;;;5015337;28;20049;-58
2022/03/09 03:33:57;;;;;;;9.35;3.63;;;17.10;59.40;;;;;;5020021;28;20029;-58
2022/03/09 03:36:23;;;;;;;7.38;3.97;;;17.10;59.30;;;;;;5019635;28;20502;-58
2022/03/09 03:38:48;;;;;;;6.75;3.42;;;17.10;59.40;;;;;;5019550;28;20025;-58
2022/03/09 03:41:14;;;;;;;7.30;3.30;;;17.10;59.40;;;;;;5017017;28;20057;-58
2022/03/09 03:43:39;;;;;;;7.38;3.58;;;17.10;60.50;;;;;;5015174;28;20084;-58
2022/03/09 03:46:05;;;;;;;7.88;3.78;;;17.10;59.50;;;;;;5028555;28;20026;-58
2022/03/09 03:48:31;;;;;;;7.05;3.60;;;17.00;59.50;;;;;;5022414;28;20064;-58
2022/03/09 03:50:56;;;;;;;7.05;3.33;;;17.00;59.50;;;;;;5019297;28;20494;-58
2022/03/09 03:53:22;;;;;;;6.57;3.40;;;17.00;59.50;;;;;;5017962;28;20061;-59
2022/03/09 03:55:48;;;;;;;7.22;3.38;;;17.10;59.60;;;;;;5014482;28;20022;-58
2022/03/09 03:58:13;;;;;;;7.30;3.28;;;17.10;59.50;;;;;;5017996;28;20033;-58
2022/03/09 04:00:39;;;;;;;9.05;3.50;;;17.00;59.50;;;;;;5020200;28;20022;-58
2022/03/09 04:03:05;;;;;;;7.05;3.50;;;17.00;59.60;;;;;;5023024;28;20048;-58
2022/03/09 04:05:30;;;;;;;6.85;3.20;;;17.00;59.50;;;;;;5023985;28;20021;-58
2022/03/09 04:07:56;;;;;;;6.38;3.28;;;17.00;59.60;;;;;;5023045;28;20095;-58
2022/03/09 04:10:22;;;;;;;5.45;2.92;;;17.00;60.70;;;;;;5018185;28;20115;-58
2022/03/09 04:12:47;;;;;;;6.97;3.30;;;17.00;59.70;;;;;;5037985;28;20037;-58
2022/03/09 04:15:13;;;;;;;6.40;3.17;;;17.00;59.70;;;;;;5029842;28;20427;-58
2022/03/09 04:17:43;;;;;;;6.95;3.05;;;16.90;59.70;;;;;;5031420;28;20486;-58
2022/03/09 04:20:09;;;;;;;7.18;3.20;;;17.00;59.80;;;;;;5029220;28;20025;-59
2022/03/09 04:22:35;;;;;;;7.05;3.03;;;16.90;59.70;;;;;;5024735;28;20025;-58
2022/03/09 04:25:01;;;;;;;6.82;3.13;;;17.00;59.80;;;;;;5017884;28;20105;-58
2022/03/09 04:27:28;;;;;;;6.63;3.13;;;17.00;59.80;;;;;;5026652;28;20112;-58
2022/03/09 04:29:53;;;;;;;6.20;2.85;;;17.00;59.80;;;;;;5023784;28;20034;-58
2022/03/09 04:32:19;;;;;;;6.72;3.10;;;16.90;60.10;;;;;;5029457;28;20620;-59
2022/03/09 04:34:44;;;;;;;8.85;3.72;;;16.90;60.50;;;;;;5027588;28;20026;-58
2022/03/09 04:37:10;;;;;;;6.97;3.05;;;16.90;61.20;;;;;;5049210;28;20113;-58
2022/03/09 04:39:36;;;;;;;8.70;3.13;;;16.90;61.30;;;;;;5017125;28;20050;-58
2022/03/09 04:42:02;;;;;;;8.60;2.95;;;16.90;61.80;;;;;;5018000;28;20080;-58
2022/03/09 04:44:27;;;;;;;8.48;3.10;;;16.90;60.90;;;;;;5017701;28;20060;-58
2022/03/09 04:46:53;;;;;;;7.40;3.17;;;16.90;61.10;;;;;;5013720;28;20498;-58
2022/03/09 04:49:18;;;;;;;9.07;3.03;;;16.80;61.20;;;;;;5016398;28;20518;-58
2022/03/09 04:51:44;;;;;;;7.40;3.17;;;16.80;61.20;;;;;;5021040;28;20113;-58
2022/03/09 04:54:10;;;;;;;8.98;3.05;;;16.80;61.00;;;;;;5024223;28;20125;-58
2022/03/09 04:56:35;;;;;;;7.38;3.03;;;16.80;61.00;;;;;;5012602;28;20022;-58
2022/03/09 04:59:01;;;;;;;6.13;2.70;;;16.80;61.10;;;;;;5029580;28;20037;-58
2022/03/09 05:01:27;;;;;;;7.60;2.80;;;16.80;61.20;;;;;;5025659;28;20037;-59
2022/03/09 05:03:53;;;;;;;7.70;2.90;;;16.80;61.30;;;;;;5017964;28;20406;-58
2022/03/09 05:06:18;;;;;;;6.13;2.90;;;16.80;61.10;;;;;;5017884;28;20037;-58
2022/03/09 05:08:44;;;;;;;6.93;3.03;;;16.80;61.00;;;;;;5021690;28;20057;-58
2022/03/09 05:11:10;;;;;;;5.95;2.80;;;16.70;61.10;;;;;;5014493;28;20036;-58
2022/03/09 05:13:35;;;;;;;8.13;2.75;;;16.70;61.00;;;;;;5013682;28;20057;-58
2022/03/09 05:16:01;;;;;;;6.10;2.55;;;16.70;61.10;;;;;;5017716;28;20030;-58
2022/03/09 05:18:27;;;;;;;5.43;2.70;;;16.70;61.00;;;;;;5024133;28;20037;-58
2022/03/09 05:20:52;;;;;;;7.18;2.88;;;16.70;61.00;;;;;;5026288;28;20041;-58
2022/03/09 05:23:18;;;;;;;7.43;2.70;;;16.70;61.10;;;;;;5015862;28;20128;-58
2022/03/09 05:25:43;;;;;;;6.35;2.80;;;16.60;61.10;;;;;;5026513;28;20394;-59
2022/03/09 05:28:09;;;;;;;7.32;2.60;;;16.60;61.50;;;;;;5029593;28;20556;-58
2022/03/09 05:30:35;;;;;;;6.03;2.67;;;16.60;61.00;;;;;;5020216;28;20030;-58
2022/03/09 05:33:00;;;;;;;7.25;2.67;;;16.60;61.00;;;;;;5017413;28;20029;-59
2022/03/09 05:35:26;;;;;;;7.93;2.63;;;16.70;61.10;;;;;;5023776;28;20406;-58
2022/03/09 05:37:52;;;;;;;7.50;2.50;;;16.60;61.10;;;;;;5012656;28;20491;-58
2022/03/09 05:40:17;;;;;;;5.60;2.55;;;16.60;61.10;;;;;;5014374;28;20042;-58
2022/03/09 05:42:43;;;;;;;6.95;2.58;;;16.60;61.10;;;;;;5024259;28;20041;-58
2022/03/09 05:45:09;;;;;;;6.32;2.40;;;16.60;61.10;;;;;;5023442;28;20030;-58
2022/03/09 05:47:35;;;;;;;7.72;2.92;;;16.60;61.10;;;;;;5017422;28;20045;-58
2022/03/09 05:50:00;;;;;;;5.93;2.40;;;16.60;61.20;;;;;;5013173;28;20398;-58
2022/03/09 05:52:26;;;;;;;8.05;2.45;;;16.60;61.60;;;;;;5024265;28;20060;-58
2022/03/09 05:54:52;;;;;;;6.22;2.42;;;16.60;61.60;;;;;;5017224;28;20026;-58
2022/03/09 05:57:21;;;;;;;5.43;2.60;;;16.60;62.00;;;;;;5019678;28;20045;-59
2022/03/09 05:59:47;;;;;;;6.75;2.40;;;16.60;61.70;;;;;;5026164;28;20030;-58
2022/03/09 06:02:13;;;;;;;6.05;2.22;;;16.50;61.80;;;;;;5014395;28;20028;-58
2022/03/09 06:04:39;;;;;;;7.00;2.42;;;16.50;62.30;;;;;;5012557;28;20034;-58
2022/03/09 06:07:04;;;;;;;6.88;2.53;;;16.50;62.20;;;;;;5016891;28;20022;-58
2022/03/09 06:09:30;;;;;;;10.15;2.58;;;16.60;62.10;;;;;;5020579;28;20060;-59
2022/03/09 06:11:56;;;;;;;7.10;2.42;;;16.50;62.10;;;;;;5056940;28;20029;-58
2022/03/09 06:14:22;;;;;;;5.50;2.30;;;16.50;62.00;;;;;;5021180;28;20053;-59
2022/03/09 06:16:47;;;;;;;6.78;2.22;;;16.60;62.20;;;;;;5026666;28;20032;-58
2022/03/09 06:19:14;;;;;;;10.55;2.70;;;16.50;62.10;;;;;;5025383;28;20033;-58
2022/03/09 06:21:40;;;;;;;6.65;2.30;;;16.60;62.30;;;;;;5023823;28;20061;-58
2022/03/09 06:24:06;;;;;;;8.43;2.72;;;16.60;62.70;;;;;;5022776;28;20339;-58
2022/03/09 06:26:31;;;;;;;8.35;2.55;;;16.60;64.10;;;;;;5021045;28;20035;-59
2022/03/09 06:28:57;;;;;;;6.88;2.55;;;16.60;64.80;;;;;;5027432;28;20045;-59
2022/03/09 06:31:23;;;;;;;6.57;2.80;;;16.60;65.00;;;;;;5026192;28;20512;-59
2022/03/09 06:33:48;;;;;;;7.57;2.55;;;16.60;64.90;;;;;;5027730;28;20513;-59
2022/03/09 06:36:15;;;;;;;9.15;3.03;;;16.60;65.10;;;;;;5022258;28;20026;-59
2022/03/09 06:38:40;;;;;;;7.63;2.63;;;16.60;64.70;;;;;;5015890;28;20477;-59
2022/03/09 06:41:06;;;;;;;7.78;2.80;;;16.60;64.80;;;;;;5026558;28;20048;-59
2022/03/09 06:43:32;;;;;;;6.63;2.63;;;16.60;64.20;;;;;;5012635;28;20104;-59
2022/03/09 06:45:57;;;;;;;6.63;2.58;;;16.60;65.20;;;;;;5016842;28;20053;-59
2022/03/09 06:48:23;;;;;;;8.90;2.60;;;16.60;64.00;;;;;;5022640;28;20056;-59
2022/03/09 06:50:48;;;;;;;5.80;2.17;;;16.50;64.10;;;;;;5057462;28;20040;-58
2022/03/09 06:53:14;;;;;;;6.70;2.10;;;16.50;64.00;;;;;;5017470;28;20038;-59
2022/03/09 06:55:40;;;;;;;8.95;2.30;;;16.50;63.80;;;;;;5015696;28;20022;-59
2022/03/09 06:58:05;;;;;;;8.48;2.35;;;16.50;63.90;;;;;;5019855;28;20044;-59
2022/03/09 07:00:31;;;;;;;8.55;2.10;;;16.50;63.80;;;;;;5020298;28;20068;-59
2022/03/09 07:02:57;;;;;;;8.75;1.90;;;16.50;63.80;;;;;;5021744;28;20489;-59
2022/03/09 07:05:22;;;;;;;7.43;2.50;;;16.50;63.80;;;;;;5031317;28;20036;-59
2022/03/09 07:07:48;;;;;;;6.68;2.40;;;16.50;63.70;;;;;;5015181;28;20026;-59
2022/03/09 07:10:14;;;;;;;5.65;2.10;;;16.50;63.70;;;;;;5018877;28;20096;-59
2022/03/09 07:12:41;;;;;;;8.43;2.30;;;16.50;63.70;;;;;;5020168;28;20062;-59
2022/03/09 07:15:07;;;;;;;7.47;2.33;;;16.40;63.80;;;;;;5019089;28;20112;-59
2022/03/09 07:17:33;;;;;;;5.00;2.30;;;16.40;63.40;;;;;;5031292;28;20032;-58
2022/03/09 07:19:58;;;;;;;6.90;2.10;;;16.50;63.70;;;;;;5015611;28;20025;-59
2022/03/09 07:22:24;;;;;;;7.13;2.30;;;16.40;63.60;;;;;;5031170;28;20124;-58
2022/03/09 07:24:50;;;;;;;6.47;2.08;;;16.40;63.40;;;;;;5020656;28;20430;-59
2022/03/09 07:27:15;;;;;;;7.45;2.30;;;16.40;63.40;;;;;;5019998;28;20026;-59
2022/03/09 07:29:41;;;;;;;6.55;2.05;;;16.40;63.50;;;;;;5019953;28;20060;-59
2022/03/09 07:32:08;;;;;;;6.18;2.20;;;16.40;63.40;;;;;;5016267;28;20037;-59
2022/03/09 07:34:34;;;;;;;6.55;2.20;;;16.40;63.50;;;;;;5015466;28;20096;-59
2022/03/09 07:37:00;;;;;;;6.25;2.15;;;16.40;63.60;;;;;;5025659;28;20486;-59
2022/03/09 07:39:26;;;;;;;6.63;2.20;;;16.40;63.30;;;;;;5023574;28;20053;-59
2022/03/09 07:41:55;;;;;;;6.30;2.03;;;16.40;63.20;;;;;;5019580;28;20068;-59
2022/03/09 07:44:21;;;;;;;6.35;2.20;;;16.40;63.10;;;;;;5018076;28;20029;-59
2022/03/09 07:46:47;;;;;;;9.30;2.10;;;16.40;63.20;;;;;;5014692;28;20538;-59
2022/03/09 07:49:13;;;;;;;8.20;2.45;;;16.40;63.20;;;;;;5018382;28;20068;-59
2022/03/09 07:51:39;;;;;;;6.70;2.13;;;16.40;63.20;;;;;;5019284;28;20420;-59
2022/03/09 07:54:04;;;;;;;6.75;2.03;;;16.40;63.20;;;;;;5023302;28;20033;-59
2022/03/09 07:56:30;;;;;;;6.78;2.28;;;16.50;63.20;;;;;;5030577;28;20028;-59
2022/03/09 07:58:55;;;;;;;8.80;2.20;;;16.50;63.20;;;;;;5014749;28;20057;-58
2022/03/09 08:01:21;;;;;;;8.02;2.20;;;16.50;63.20;;;;;;5030233;28;20090;-59
2022/03/09 08:03:47;;;;;;;7.82;2.15;;;16.50;63.20;;;;;;5019276;28;20053;-59
2022/03/09 08:06:12;;;;;;;6.95;1.98;;;16.40;63.00;;;;;;5018787;28;20025;-58
2022/03/09 08:08:38;;;;;;;6.95;2.00;;;16.50;63.00;;;;;;5019244;28;20030;-58
2022/03/09 08:11:04;;;;;;;5.93;2.15;;;16.50;63.10;;;;;;5015119;28;20505;-58
2022/03/09 08:13:29;;;;;;;6.35;2.05;;;16.50;63.00;;;;;;5015985;28;20413;-59
2022/03/09 08:15:55;;;;;;;6.35;2.05;;;16.50;63.00;;;;;;5021893;28;20068;-59
2022/03/09 08:18:20;;;;;;;6.18;2.00;;;16.50;63.00;;;;;;5023827;28;20080;-59
2022/03/09 08:20:46;;;;;;;9.43;2.45;;;16.50;63.00;;;;;;5017850;28;20105;-59
2022/03/09 08:23:12;;;;;;;5.25;1.98;;;16.50;63.00;;;;;;5016110;28;20072;-59
2022/03/09 08:25:37;;;;;;;8.48;1.90;;;16.50;62.90;;;;;;5014573;28;20030;-59
2022/03/09 08:28:03;;;;;;;6.03;1.92;;;16.50;62.90;;;;;;5018596;28;20076;-59
2022/03/09 08:30:29;;;;;;;8.75;2.03;;;16.50;62.90;;;;;;5020664;28;20026;-59
2022/03/09 08:32:55;;;;;;;6.65;2.03;;;16.50;62.90;;;;;;5026299;28;20517;-58
2022/03/09 08:35:20;;;;;;;7.22;1.80;;;16.50;62.80;;;;;;5016628;28;20025;-59
2022/03/09 08:37:46;;;;;;;6.72;2.00;;;16.50;62.80;;;;;;5013921;28;20033;-59
2022/03/09 08:40:12;;;;;;;5.68;2.13;;;16.50;62.70;;;;;;5017335;28;20584;-59
2022/03/09 08:42:38;;;;;;;6.30;1.90;;;16.60;62.70;;;;;;5021680;28;20592;-59
2022/03/09 08:45:04;;;;;;;6.28;1.90;;;16.60;62.60;;;;;;5025559;28;20017;-59
2022/03/09 08:47:30;;;;;;;6.30;2.00;;;16.50;63.70;;;;;;5020688;28;20602;-59
2022/03/09 08:49:57;;;;;;;6.65;2.00;;;16.60;62.50;;;;;;5028128;28;20029;-59
2022/03/09 08:52:23;;;;;;;5.38;1.85;;;16.60;62.50;;;;;;5015874;28;20427;-59
2022/03/09 08:54:48;;;;;;;6.65;1.83;;;16.60;62.50;;;;;;5018272;28;20026;-59
2022/03/09 08:57:14;;;;;;;6.50;2.00;;;16.60;62.50;;;;;;5018148;28;20026;-59
2022/03/09 08:59:40;;;;;;;5.07;1.80;;;16.60;62.50;;;;;;5018381;28;20021;-59
2022/03/09 09:02:06;;;;;;;4.47;1.73;;;16.60;62.50;;;;;;5014381;28;20512;-59
2022/03/09 09:04:31;;;;;;;5.45;1.63;;;16.60;62.30;;;;;;5019208;28;20563;-59
2022/03/09 09:06:57;;;;;;;6.88;2.03;;;16.60;62.30;;;;;;5018666;28;20036;-59
2022/03/09 09:09:23;;;;;;;7.38;2.08;;;16.70;62.40;;;;;;5018203;28;20423;-58
2022/03/09 09:11:48;;;;;;;6.68;1.90;;;16.60;62.30;;;;;;5018053;28;20021;-59
2022/03/09 09:14:14;;;;;;;7.10;1.77;;;16.60;62.30;;;;;;5014631;28;20021;-58
2022/03/09 09:16:43;;;;;;;5.88;1.70;;;16.60;62.30;;;;;;5013060;28;20032;-59
2022/03/09 09:19:09;;;;;;;7.85;2.20;;;16.60;62.30;;;;;;5016407;28;20388;-58
2022/03/09 09:21:34;;;;;;;5.10;1.80;;;16.60;62.20;;;;;;5020265;28;20030;-59
2022/03/09 09:24:00;;;;;;;6.28;1.92;;;16.60;62.20;;;;;;5021052;28;20056;-59
2022/03/09 09:26:26;;;;;;;4.43;1.65;;;16.60;62.30;;;;;;5028353;28;20029;-59
2022/03/09 09:28:52;;;;;;;5.72;1.80;;;16.60;62.20;;;;;;5028675;28;20045;-59
2022/03/09 09:31:17;;;;;;;5.97;1.70;;;16.60;62.20;;;;;;5016135;28;20071;-58
2022/03/09 09:33:43;;;;;;;6.15;1.70;;;16.70;62.30;;;;;;5017362;28;20034;-59
2022/03/09 09:36:08;;;;;;;7.65;1.92;;;16.60;62.20;;;;;;5017074;28;20029;-59
2022/03/09 09:38:34;;;;;;;5.53;1.80;;;16.60;62.20;;;;;;5017662;28;20104;-59
2022/03/09 09:41:00;;;;;;;5.45;2.00;;;16.60;62.20;;;;;;5012898;28;20033;-58
2022/03/09 09:43:27;;;;;;;5.40;1.70;;;16.60;62.20;;;;;;5040724;28;20053;-59
2022/03/09 09:45:53;;;;;;;5.93;1.80;;;16.60;62.20;;;;;;5028235;28;20029;-59
2022/03/09 09:48:19;;;;;;;5.20;1.50;;;16.60;62.20;;;;;;5022272;28;20470;-59
2022/03/09 09:50:45;;;;;;;6.28;2.03;;;16.60;62.20;;;;;;5017340;28;20025;-59
2022/03/09 09:53:12;;;;;;;5.78;1.77;;;16.60;62.20;;;;;;5016739;28;20087;-59
2022/03/09 09:55:39;;;;;;;6.85;1.70;;;16.60;62.20;;;;;;5028651;28;20030;-58
2022/03/09 09:58:05;;;;;;;6.93;1.83;;;16.60;62.10;;;;;;5016960;28;20496;-59
2022/03/09 10:00:31;;;;;;;5.10;1.83;;;16.60;62.10;;;;;;5017191;28;20026;-59
2022/03/09 10:02:57;;;;;;;5.75;1.80;;;16.60;62.10;;;;;;5019945;28;20041;-59
2022/03/09 10:05:23;;;;;;;6.43;1.60;;;16.60;62.10;;;;;;5027758;28;20041;-59
2022/03/09 10:08:04;;;;;;;6.32;1.80;;;16.60;62.00;;;;;;5012439;28;20026;-59
2022/03/09 10:10:34;;;;;;;4.95;1.65;;;16.60;62.20;;;;;;5040877;28;20399;-59
2022/03/09 10:13:30;;;;;;;3.67;1.40;;;16.60;62.10;;;;;;5017153;28;20080;-59
2022/03/09 10:16:20;;;;;;;6.55;1.75;;;16.60;62.10;;;;;;5019351;28;20034;-59
2022/03/09 10:18:51;;;;;;;5.10;1.90;;;16.60;62.10;;;;;;5025815;28;20056;-59
2022/03/09 10:21:19;;;;;;;5.43;1.77;;;16.60;62.10;;;;;;5027278;28;20029;-59
2022/03/09 10:24:00;;;;;;;5.93;1.65;;;16.60;62.00;;;;;;5026552;28;20034;-59
2022/03/09 10:26:44;;;;;;;5.68;1.70;;;16.60;62.10;;;;;;5017075;28;20057;-58
2022/03/09 10:29:11;;;;;;;6.05;2.03;;;16.60;62.10;;;;;;5016885;28;20112;-59
2022/03/09 10:31:37;;;;;;;7.30;1.85;;;16.60;62.00;;;;;;5016185;28;20022;-59
2022/03/09 10:34:13;;;;;;;6.28;1.70;;;16.60;62.10;;;;;;5020684;28;20487;-59
2022/03/09 10:37:00;;;;;;;4.18;1.50;;;16.60;62.00;;;;;;5028406;28;20017;-60
2022/03/09 10:39:30;;;;;;;5.53;1.67;;;16.50;62.00;;;;;;5024443;28;20050;-59
2022/03/09 10:41:58;;;;;;;4.70;1.50;;;16.50;62.10;;;;;;5020588;28;20041;-59
2022/03/09 10:44:47;;;;;;;5.40;1.67;;;16.60;62.00;;;;;;5019762;28;20083;-59
2022/03/09 10:47:31;;;;;;;5.68;1.60;;;16.60;62.10;;;;;;5018099;28;20093;-59
2022/03/09 10:50:14;;;;;;;5.30;1.50;;;16.50;62.00;;;;;;5016170;28;20048;-59
2022/03/09 10:52:47;;;;;;;5.65;1.73;;;16.50;62.00;;;;;;5029797;28;20569;-59
2022/03/09 10:55:36;;;;;;;4.93;1.58;;;16.60;62.00;;;;;;5030559;28;20087;-59
2022/03/09 10:58:18;;;;;;;5.68;1.65;;;16.50;62.00;;;;;;5020424;28;20029;-59
2022/03/09 11:00:51;;;;;;;5.05;1.73;;;16.50;61.90;;;;;;5020135;28;20092;-59
2022/03/09 11:03:27;;;;;;;5.20;1.90;;;16.50;62.00;;;;;;5020286;28;20054;-59
2022/03/09 11:06:00;;;;;;;5.35;1.50;;;16.60;61.90;;;;;;5020262;28;20056;-59
2022/03/09 11:08:34;;;;;;;5.15;1.35;;;16.50;61.90;;;;;;5019441;28;20033;-59
2022/03/09 11:11:00;;;;;;;5.75;1.50;;;16.50;61.90;;;;;;5027343;28;20464;-59
2022/03/09 11:13:28;;;;;;;5.13;1.50;;;16.50;61.80;;;;;;5028220;28;20063;-62
2022/03/09 11:15:54;;;;;;;6.10;1.55;;;16.60;62.00;;;;;;5020220;28;20053;-59
2022/03/09 11:18:21;;;;;;;5.65;1.58;;;16.60;61.90;;;;;;5020197;28;20034;-59
2022/03/09 11:20:48;;;;;;;6.32;1.50;;;16.50;61.80;;;;;;5020173;28;20140;-59
2022/03/09 11:23:14;;;;;;;4.60;1.23;;;16.50;61.80;;;;;;5017368;28;20037;-58
2022/03/09 11:25:53;;;;;;;5.80;1.60;;;16.50;61.80;;;;;;5017033;28;20524;-59
2022/03/09 11:28:26;;;;;;;5.75;1.60;;;16.50;61.80;;;;;;5015446;28;20029;-59
2022/03/09 11:31:01;;;;;;;5.28;1.73;;;16.50;61.70;;;;;;5025051;28;20549;-59
2022/03/09 11:33:53;;;;;;;4.45;1.40;;;16.50;61.70;;;;;;5023400;28;20046;-59
2022/03/09 11:36:27;;;;;;;5.40;1.60;;;16.60;61.70;;;;;;5019527;28;20616;-59
2022/03/09 11:38:53;;;;;;;6.35;1.83;;;16.50;61.70;;;;;;5018499;28;20034;-59
2022/03/09 11:41:23;;;;;;;5.20;1.50;;;16.50;61.70;;;;;;5017846;28;20103;-59
2022/03/09 11:43:50;;;;;;;5.20;1.58;;;16.50;61.70;;;;;;5018634;28;20073;-58
2022/03/09 11:46:16;;;;;;;4.22;1.60;;;16.50;61.70;;;;;;5017915;28;20415;-59
2022/03/09 11:48:55;;;;;;;5.07;1.50;;;16.60;61.70;;;;;;5023447;28;20103;-59
2022/03/09 11:51:28;;;;;;;7.07;1.58;;;16.60;61.70;;;;;;5024111;28;20028;-59
2022/03/09 11:53:55;;;;;;;5.40;1.50;;;16.60;61.60;;;;;;5019549;28;20132;-59
2022/03/09 11:56:35;;;;;;;6.88;1.52;;;16.60;61.60;;;;;;5017997;28;20544;-58
2022/03/09 11:59:12;;;;;;;5.22;1.33;;;16.60;61.60;;;;;;5014860;28;20030;-59
2022/03/09 12:02:07;;;;;;;4.38;1.52;;;16.60;61.60;;;;;;5028668;28;20116;-59
2022/03/09 12:04:59;;;;;;;3.28;1.35;;;16.60;61.50;;;;;;5027627;28;20041;-59
2022/03/09 12:07:31;;;;;;;4.70;1.38;;;16.60;61.40;;;;;;5016211;28;20503;-59
2022/03/09 12:10:16;;;;;;;5.07;1.35;;;16.60;61.50;;;;;;5030894;28;20059;-59
2022/03/09 12:13:14;;;;;;;4.47;1.40;;;16.60;61.30;;;;;;5020564;28;20491;-59
2022/03/09 12:16:05;;;;;;;4.03;1.30;;;16.60;61.30;;;;;;5018873;28;20026;-58
2022/03/09 12:18:35;;;;;;;5.07;1.50;;;16.60;61.30;;;;;;5018774;28;20037;-59
2022/03/09 12:21:01;;;;;;;6.53;1.60;;;16.60;61.30;;;;;;5019067;28;20037;-59
2022/03/09 12:23:26;;;;;;;5.80;1.38;;;16.60;61.30;;;;;;5013488;28;20037;-59
2022/03/09 12:25:53;;;;;;;4.38;1.30;;;16.60;61.20;;;;;;5029289;28;20128;-59
2022/03/09 12:28:25;;;;;;;5.55;1.63;;;16.60;61.10;;;;;;5016468;28;20034;-59
2022/03/09 12:30:54;;;;;;;5.88;1.30;;;16.60;61.10;;;;;;5018602;28;20030;-59
2022/03/09 12:33:27;;;;;;;4.93;1.58;;;16.60;61.00;;;;;;5021989;28;20029;-59
2022/03/09 12:35:53;;;;;;;4.50;1.38;;;16.70;61.00;;;;;;5027119;28;20037;-59
2022/03/09 12:38:19;;;;;;;4.95;1.17;;;16.70;61.00;;;;;;5017006;28;20037;-59
2022/03/09 12:40:45;;;;;;;4.57;1.50;;;16.70;60.90;;;;;;5013424;28;20042;-59
2022/03/09 12:43:13;;;;;;;4.45;1.30;;;16.70;60.90;;;;;;5017416;28;20479;-59
2022/03/09 12:45:55;;;;;;;4.63;1.30;;;16.70;60.90;;;;;;5018364;28;20097;-59
2022/03/09 12:48:21;;;;;;;4.57;1.30;;;16.70;60.90;;;;;;5018490;28;20029;-59
2022/03/09 12:50:47;;;;;;;4.40;1.50;;;16.70;60.90;;;;;;5019989;28;20433;-59